createdAt,value
2023-03-29T00:01:34.780Z,2.57
2023-03-29T00:05:23.293Z,2.51
2023-03-29T00:09:22.290Z,2.48
2023-03-29T00:13:22.232Z,2.46
2023-03-29T00:17:22.170Z,2.50
2023-03-29T00:21:22.170Z,2.48
2023-03-29T00:25:22.287Z,2.47
2023-03-29T00:29:22.365Z,2.41
2023-03-29T00:33:22.482Z,2.37
2023-03-29T00:37:22.554Z,2.42
2023-03-29T00:41:22.689Z,2.34
2023-03-29T00:45:22.822Z,2.38
2023-03-29T00:49:22.893Z,2.33
2023-03-29T00:53:22.979Z,2.39
2023-03-29T00:57:23.735Z,2.29
2023-03-29T01:01:23.256Z,2.27
2023-03-29T01:05:23.325Z,2.28
2023-03-29T01:09:23.420Z,2.24
2023-03-29T01:13:23.521Z,2.22
2023-03-29T01:17:23.743Z,2.23
2023-03-29T01:21:23.784Z,2.22
2023-03-29T01:25:23.851Z,2.18
2023-03-29T01:29:23.981Z,2.17
2023-03-29T01:33:24.117Z,2.21
2023-03-29T01:37:24.196Z,2.15
2023-03-29T01:41:24.383Z,2.17
2023-03-29T01:45:24.438Z,2.12
2023-03-29T01:49:24.576Z,2.11
2023-03-29T01:53:24.680Z,2.08
2023-03-29T01:57:24.930Z,2.05
2023-03-29T02:01:24.946Z,2.04
2023-03-29T02:05:25.034Z,2.04
2023-03-29T02:09:25.166Z,2.05
2023-03-29T02:13:25.256Z,2.03
2023-03-29T02:17:25.427Z,2.03
2023-03-29T02:21:25.516Z,2.00
2023-03-29T02:25:25.626Z,2.02
2023-03-29T02:29:25.838Z,1.97
2023-03-29T02:33:25.865Z,1.97
2023-03-29T02:37:25.987Z,1.98
2023-03-29T02:41:26.095Z,1.92
2023-03-29T02:45:26.226Z,1.94
2023-03-29T02:49:26.343Z,1.88
2023-03-29T02:53:26.444Z,1.92
2023-03-29T02:57:26.894Z,1.92
2023-03-29T03:01:26.732Z,1.88
2023-03-29T03:05:26.810Z,1.84
2023-03-29T03:09:26.944Z,1.86
2023-03-29T03:13:27.073Z,1.83
2023-03-29T03:17:27.245Z,1.82
2023-03-29T03:21:27.293Z,1.80
2023-03-29T03:25:27.396Z,1.79
2023-03-29T03:29:27.550Z,1.77
2023-03-29T03:33:27.682Z,1.77
2023-03-29T03:37:27.785Z,1.77
2023-03-29T03:41:27.923Z,1.74
2023-03-29T03:45:28.063Z,1.74
2023-03-29T03:49:28.169Z,1.70
2023-03-29T03:53:28.295Z,1.69
2023-03-29T03:57:28.443Z,1.68
2023-03-29T04:01:28.562Z,1.65
2023-03-29T04:05:28.664Z,1.68
2023-03-29T04:09:28.794Z,1.66
2023-03-29T04:13:28.923Z,1.65
2023-03-29T04:17:29.100Z,1.64
2023-03-29T04:21:29.223Z,1.62
2023-03-29T04:25:29.329Z,1.61
2023-03-29T04:29:29.491Z,1.59
2023-03-29T04:33:29.618Z,1.57
2023-03-29T04:37:29.786Z,1.53
2023-03-29T04:41:29.893Z,1.53
2023-03-29T04:45:30.088Z,1.49
2023-03-29T04:49:30.198Z,1.51
2023-03-29T04:53:30.351Z,1.52
2023-03-29T04:57:30.517Z,1.49
2023-03-29T05:01:30.697Z,1.49
2023-03-29T05:05:30.767Z,1.47
2023-03-29T05:09:32.498Z,1.47
2023-03-29T05:13:30.876Z,1.45
2023-03-29T05:17:30.919Z,1.45
2023-03-29T05:21:30.814Z,1.45
2023-03-29T05:25:30.771Z,1.44
2023-03-29T05:29:30.747Z,1.43
2023-03-29T05:33:30.682Z,1.42
2023-03-29T05:37:30.634Z,1.39
2023-03-29T05:41:31.106Z,1.41
2023-03-29T05:45:31.085Z,1.54
2023-03-29T05:49:30.540Z,1.60
2023-03-29T05:53:30.562Z,1.70
2023-03-29T05:57:30.579Z,1.97
2023-03-29T06:01:30.556Z,2.30
2023-03-29T06:05:30.420Z,2.73
2023-03-29T06:09:30.375Z,3.09
2023-03-29T06:13:30.339Z,3.79
2023-03-29T06:17:30.313Z,4.25
2023-03-29T06:21:30.586Z,5.00
2023-03-29T06:25:30.193Z,5.83
2023-03-29T06:29:30.200Z,6.70
2023-03-29T06:33:30.174Z,7.69
2023-03-29T06:37:30.582Z,8.30
2023-03-29T06:41:30.102Z,8.82
2023-03-29T06:45:30.101Z,9.58
2023-03-29T06:49:30.120Z,12.99
2023-03-29T06:53:30.317Z,18.62
2023-03-29T06:57:29.975Z,16.35
2023-03-29T07:01:29.928Z,16.18
2023-03-29T07:05:30.128Z,2.25
2023-03-29T07:09:29.859Z,2.25
2023-03-29T07:13:30.097Z,2.61
2023-03-29T07:17:29.798Z,3.29
2023-03-29T07:21:29.721Z,3.59
2023-03-29T07:25:29.698Z,3.92
2023-03-29T07:29:30.105Z,4.35
2023-03-29T07:33:30.060Z,5.04
2023-03-29T07:37:30.030Z,5.28
2023-03-29T07:41:30.623Z,5.75
2023-03-29T07:45:30.616Z,6.67
2023-03-29T07:49:30.607Z,7.45
2023-03-29T07:53:30.173Z,7.02
2023-03-29T07:57:30.306Z,1.43
2023-03-29T08:01:30.615Z,1.65
2023-03-29T08:05:40.632Z,1.88
2023-03-29T08:09:31.617Z,2.06
2023-03-29T08:13:30.609Z,2.41
2023-03-29T08:17:30.642Z,2.68
2023-03-29T08:21:30.667Z,3.03
2023-03-29T08:25:30.807Z,3.37
2023-03-29T08:29:30.849Z,3.97
2023-03-29T08:33:30.912Z,4.47
2023-03-29T08:37:31.157Z,5.50
2023-03-29T08:41:31.161Z,7.93
2023-03-29T08:45:30.905Z,9.20
2023-03-29T08:49:31.135Z,9.57
2023-03-29T08:53:31.168Z,5.77
2023-03-29T08:57:31.148Z,2.07
2023-03-29T09:01:31.792Z,2.79
2023-03-29T09:05:31.421Z,3.37
2023-03-29T09:09:31.457Z,4.11
2023-03-29T09:13:31.805Z,4.79
2023-03-29T09:17:31.437Z,5.44
2023-03-29T09:21:31.397Z,5.59
2023-03-29T09:25:36.240Z,5.94
2023-03-29T09:29:32.659Z,6.47
2023-03-29T09:33:31.262Z,7.41
2023-03-29T09:37:31.209Z,8.27
2023-03-29T09:41:31.726Z,9.40
2023-03-29T09:45:31.193Z,9.12
2023-03-29T09:49:31.169Z,3.75
2023-03-29T09:53:31.148Z,1.00
2023-03-29T09:57:31.375Z,0.56
2023-03-29T10:01:31.340Z,0.66
2023-03-29T10:05:31.289Z,0.76
2023-03-29T10:09:31.230Z,1.10
2023-03-29T10:13:31.697Z,1.31
2023-03-29T10:17:31.178Z,1.55
2023-03-29T10:21:31.105Z,1.72
2023-03-29T10:25:31.089Z,1.97
2023-03-29T10:29:31.231Z,2.13
2023-03-29T10:33:31.033Z,2.32
2023-03-29T10:37:31.183Z,2.49
2023-03-29T10:41:31.219Z,2.53
2023-03-29T10:45:30.928Z,2.58
2023-03-29T10:49:30.858Z,2.53
2023-03-29T10:53:31.049Z,2.52
2023-03-29T10:57:31.092Z,2.52
2023-03-29T11:01:31.046Z,2.48
2023-03-29T11:05:30.975Z,2.50
2023-03-29T11:09:30.933Z,2.49
2023-03-29T11:13:30.919Z,2.44
2023-03-29T11:17:31.268Z,2.47
2023-03-29T11:21:30.843Z,2.42
2023-03-29T11:25:30.788Z,2.42
2023-03-29T11:29:30.757Z,2.44
2023-03-29T11:33:31.182Z,2.46
2023-03-29T11:37:30.793Z,2.51
2023-03-29T11:41:30.766Z,2.47
2023-03-29T11:45:30.734Z,2.46
2023-03-29T11:49:30.736Z,2.44
2023-03-29T11:53:30.693Z,2.45
2023-03-29T11:57:30.726Z,2.47
2023-03-29T12:01:30.600Z,2.43
2023-03-29T12:05:30.569Z,2.41
2023-03-29T12:09:30.555Z,2.37
2023-03-29T12:13:30.578Z,2.40
2023-03-29T12:17:30.552Z,2.33
2023-03-29T12:21:30.487Z,2.31
2023-03-29T12:25:30.439Z,2.33
2023-03-29T12:29:30.412Z,2.34
2023-03-29T12:33:30.363Z,2.34
2023-03-29T12:37:30.359Z,2.29
2023-03-29T12:41:30.306Z,2.29
2023-03-29T12:45:30.255Z,2.29
2023-03-29T12:49:30.254Z,2.25
2023-03-29T12:53:30.209Z,2.28
2023-03-29T12:57:30.259Z,2.24
2023-03-29T13:01:30.593Z,2.23
2023-03-29T13:05:30.705Z,2.22
2023-03-29T13:09:30.860Z,2.17
2023-03-29T13:13:31.051Z,2.13
2023-03-29T13:17:31.303Z,2.11
2023-03-29T13:21:31.228Z,2.09
2023-03-29T13:25:31.234Z,2.05
2023-03-29T13:29:31.182Z,1.96
2023-03-29T13:33:31.178Z,1.97
2023-03-29T13:37:31.085Z,1.99
2023-03-29T13:41:31.083Z,1.96
2023-03-29T13:45:31.052Z,1.90
2023-03-29T13:49:30.980Z,1.86
2023-03-29T13:53:31.008Z,1.84
2023-03-29T13:57:30.947Z,1.81
2023-03-29T14:01:30.883Z,1.78
2023-03-29T14:05:30.851Z,1.76
2023-03-29T14:09:30.813Z,1.76
2023-03-29T14:13:30.787Z,1.70
2023-03-29T14:17:30.782Z,1.69
2023-03-29T14:21:30.808Z,1.68
2023-03-29T14:25:30.763Z,1.69
2023-03-29T14:29:30.827Z,1.66
2023-03-29T14:33:30.782Z,1.66
2023-03-29T14:37:30.787Z,1.63
2023-03-29T14:41:30.773Z,1.59
2023-03-29T14:45:32.768Z,1.61
2023-03-29T14:49:30.972Z,1.57
2023-03-29T14:53:30.927Z,1.56
2023-03-29T14:57:31.058Z,1.55
2023-03-29T15:01:30.973Z,1.54
2023-03-29T15:05:30.925Z,1.58
2023-03-29T15:09:30.930Z,1.55
2023-03-29T15:13:30.928Z,1.52
2023-03-29T15:17:39.415Z,1.51
2023-03-29T15:21:31.893Z,1.48
2023-03-29T15:25:30.879Z,1.48
2023-03-29T15:29:30.863Z,1.46
2023-03-29T15:33:30.895Z,1.45
2023-03-29T15:37:30.777Z,1.43
2023-03-29T15:41:30.728Z,1.41
2023-03-29T15:45:30.689Z,1.41
2023-03-29T15:49:30.683Z,1.39
2023-03-29T15:53:30.654Z,1.36
2023-03-29T15:57:30.702Z,1.35
2023-03-29T16:01:30.762Z,1.34
2023-03-29T16:05:30.663Z,1.30
2023-03-29T16:09:30.641Z,1.34
2023-03-29T16:13:30.679Z,1.34
2023-03-29T16:17:30.679Z,1.29
2023-03-29T16:21:30.695Z,1.30
2023-03-29T16:25:30.618Z,1.31
2023-03-29T16:29:30.621Z,1.29
2023-03-29T16:33:30.631Z,1.29
2023-03-29T16:37:30.623Z,1.29
2023-03-29T16:41:30.638Z,1.28
2023-03-29T16:45:30.610Z,1.25
2023-03-29T16:49:30.649Z,1.26
2023-03-29T16:53:30.655Z,1.26
2023-03-29T16:57:30.705Z,1.26
2023-03-29T17:01:30.695Z,1.23
2023-03-29T17:05:30.748Z,1.25
2023-03-29T17:09:30.735Z,1.22
2023-03-29T17:13:30.824Z,1.23
2023-03-29T17:17:30.895Z,1.22
2023-03-29T17:21:30.887Z,1.19
2023-03-29T17:25:30.907Z,1.19
2023-03-29T17:29:30.944Z,1.18
2023-03-29T17:33:30.987Z,1.17
2023-03-29T17:37:31.098Z,1.18
2023-03-29T17:41:31.398Z,1.16
2023-03-29T17:45:31.168Z,1.18
2023-03-29T17:49:31.271Z,1.14
2023-03-29T17:53:31.325Z,1.14
2023-03-29T17:57:31.409Z,1.13
2023-03-29T18:01:31.524Z,1.14
2023-03-29T18:05:31.568Z,1.15
2023-03-29T18:09:31.635Z,1.09
2023-03-29T18:13:31.737Z,1.13
2023-03-29T18:17:31.843Z,1.11
2023-03-29T18:21:31.916Z,1.08
2023-03-29T18:25:32.015Z,1.07
2023-03-29T18:29:32.141Z,1.07
2023-03-29T18:33:32.221Z,1.07
2023-03-29T18:37:32.352Z,1.09
2023-03-29T18:41:32.460Z,1.08
2023-03-29T18:45:32.577Z,1.06
2023-03-29T18:49:32.875Z,1.05
2023-03-29T18:53:32.800Z,1.04
2023-03-29T18:57:33.029Z,1.07
2023-03-29T19:01:33.082Z,1.05
2023-03-29T19:05:33.217Z,1.04
2023-03-29T19:09:33.274Z,1.05
2023-03-29T19:13:33.421Z,1.03
2023-03-29T19:17:33.600Z,1.00
2023-03-29T19:21:33.666Z,1.01
2023-03-29T19:25:33.763Z,1.00
2023-03-29T19:29:33.897Z,1.01
2023-03-29T19:33:34.061Z,0.98
2023-03-29T19:37:34.141Z,0.98
2023-03-29T19:41:34.280Z,0.98
2023-03-29T19:45:34.358Z,0.96
2023-03-29T19:49:34.482Z,0.95
2023-03-29T19:53:37.147Z,0.94
2023-03-29T19:57:34.602Z,0.94
2023-03-29T20:01:34.550Z,0.93
2023-03-29T20:05:34.508Z,0.93
2023-03-29T20:09:34.481Z,0.93
2023-03-29T20:17:34.444Z,0.93
2023-03-29T20:21:34.361Z,0.93
2023-03-29T20:25:34.364Z,0.92
2023-03-29T20:29:34.311Z,0.93
2023-03-29T20:33:34.238Z,0.90
2023-03-29T20:37:34.223Z,0.91
2023-03-29T20:41:34.204Z,0.92
2023-03-29T20:45:42.949Z,0.90
2023-03-29T20:49:35.138Z,0.91
2023-03-29T20:53:34.098Z,0.89
2023-03-29T20:57:34.126Z,0.89
2023-03-29T21:01:34.152Z,0.89
2023-03-29T21:05:34.327Z,0.91
2023-03-29T21:09:34.447Z,0.89
2023-03-29T21:13:36.891Z,0.86
2023-03-29T21:17:34.545Z,0.89
2023-03-29T21:21:34.528Z,0.88
2023-03-29T21:25:34.560Z,0.88
2023-03-29T21:29:34.459Z,0.87
2023-03-29T21:33:34.405Z,0.87
2023-03-29T21:37:34.373Z,0.85
2023-03-29T21:41:34.321Z,0.87
2023-03-29T21:45:34.319Z,0.87
2023-03-29T21:49:34.272Z,0.85
2023-03-29T21:53:34.224Z,0.86
2023-03-29T21:57:34.181Z,0.84
2023-03-29T22:01:34.269Z,0.84
2023-03-29T22:05:34.141Z,0.85
2023-03-29T22:09:34.110Z,0.85
2023-03-29T22:13:34.218Z,0.83
2023-03-29T22:17:34.355Z,0.84
2023-03-29T22:21:34.490Z,0.85
2023-03-29T22:25:34.620Z,0.85
2023-03-29T22:29:34.807Z,0.84
2023-03-29T22:33:34.977Z,0.82
2023-03-29T22:37:35.158Z,0.82
2023-03-29T22:41:35.310Z,0.83
2023-03-29T22:45:35.436Z,0.82
2023-03-29T22:49:35.608Z,0.80
2023-03-29T22:53:35.751Z,0.81
2023-03-29T22:57:35.885Z,0.80
2023-03-29T23:01:36.108Z,0.83
2023-03-29T23:05:36.180Z,0.82
2023-03-29T23:09:36.323Z,0.81
2023-03-29T23:13:36.472Z,0.80
2023-03-29T23:17:36.615Z,0.79
2023-03-29T23:21:36.808Z,0.80
2023-03-29T23:25:36.971Z,0.80
2023-03-29T23:29:37.080Z,0.80
2023-03-29T23:33:37.273Z,0.79
2023-03-29T23:37:37.482Z,0.78
2023-03-29T23:41:37.660Z,0.77
2023-03-29T23:45:37.847Z,0.78
2023-03-29T23:49:38.137Z,0.78
2023-03-29T23:53:38.253Z,0.76
2023-03-29T23:57:38.430Z,0.77
